Time;durP1;ratioP1;P1;durP2;ratioP2;P2;SDS_P1;SDS_P2;PMS_P1;PMS_P2;Temp;Humidity;BMP_temperature;BMP_pressure;BME280_temperature;BME280_humidity;BME280_pressure;Samples;Min_cycle;Max_cycle;Signal;HPM_P1;HPM_P2
2022/06/18 00:00:55;;;;;;;;;;;;;;;;;;5035554;28;20396;-77
2022/06/18 00:03:23;;;;;;;;;;;;;;;;;;5036268;28;19925;-76
2022/06/18 00:05:51;;;;;;;;;;;;;;;;;;5035878;28;19937;-78
2022/06/18 00:08:19;;;;;;;;;;;;;;;;;;5035992;28;19932;-76
2022/06/18 00:10:45;;;;;;;;;;;;;;;;;;5035482;28;19925;-78
2022/06/18 00:13:39;;;;;;;;;;;;;;;;;;5035856;28;20644;-77
2022/06/18 00:16:06;;;;;;;;;;;;;;;;;;5035957;28;19933;-75
2022/06/18 00:18:34;;;;;;;;;;;;;;;;;;5036036;28;19933;-78
2022/06/18 00:21:01;;;;;;;;;;;;;;;;;;5035505;28;19935;-78
2022/06/18 00:23:29;;;;;;;;;;;;;;;;;;5035624;28;20020;-77
2022/06/18 00:25:56;;;;;;;;;;;;;;;;;;5035880;28;19925;-77
2022/06/18 00:28:24;;;;;;;;;;;;;;;;;;5035905;28;19932;-77
2022/06/18 00:30:52;;;;;;;;;;;;;;;;;;5035097;28;20391;-77
2022/06/18 00:33:19;;;;;;;;;;;;;;;;;;5036076;28;19931;-77
2022/06/18 00:35:47;;;;;;;;;;;;;;;;;;5035972;28;19929;-79
2022/06/18 00:38:14;;;;;;;;;;;;;;;;;;5036048;28;19983;-78
2022/06/18 00:40:42;;;;;;;;;;;;;;;;;;5035336;28;19932;-76
2022/06/18 00:43:14;;;;;;;;;;;;;;;;;;5035605;28;20026;-76
2022/06/18 00:45:40;;;;;;;;;;;;;;;;;;5035660;28;19932;-77
2022/06/18 00:48:10;;;;;;;;;;;;;;;;;;5035594;28;20012;-77
2022/06/18 00:50:38;;;;;;;;;;;;;;;;;;5035627;28;20025;-76
2022/06/18 00:53:09;;;;;;;;;;;;;;;;;;5036288;28;19925;-76
2022/06/18 00:55:40;;;;;;;;;;;;;;;;;;5038117;28;19925;-78
2022/06/18 00:58:09;;;;;;;;;;;;;;;;;;5038437;28;20380;-77
2022/06/18 01:00:37;;;;;;;;;;;;;;;;;;5035314;28;19947;-79
2022/06/18 01:03:04;;;;;;;;;;;;;;;;;;5035184;28;20023;-79
2022/06/18 01:05:36;;;;;;;;;;;;;;;;;;5034739;28;19931;-79
2022/06/18 01:08:04;;;;;;;;;;;;;;;;;;5035156;28;19931;-79
2022/06/18 01:10:34;;;;;;;;;;;;;;;;;;5034556;28;19925;-79
2022/06/18 01:13:02;;;;;;;;;;;;;;;;;;5034621;28;19925;-79
2022/06/18 01:15:30;;;;;;;;;;;;;;;;;;5034769;28;19952;-79
2022/06/18 01:17:56;;;;;;;;;;;;;;;;;;5034847;28;19925;-79
2022/06/18 01:20:24;;;;;;;;;;;;;;;;;;5034493;28;19925;-79
2022/06/18 01:22:59;;;;;;;;;;;;;;;;;;5034894;28;19948;-77
2022/06/18 01:25:28;;;;;;;;;;;;;;;;;;5035128;28;20020;-77
2022/06/18 01:27:55;;;;;;;;;;;;;;;;;;5034999;28;19931;-78
2022/06/18 01:30:23;;;;;;;;;;;;;;;;;;5034763;28;20366;-77
2022/06/18 01:32:51;;;;;;;;;;;;;;;;;;5036809;28;19925;-77
2022/06/18 01:35:18;;;;;;;;;;;;;;;;;;5036729;28;20023;-78
2022/06/18 01:37:44;;;;;;;;;;;;;;;;;;5035426;28;19925;-76
2022/06/18 01:40:15;;;;;;;;;;;;;;;;;;5034148;28;20368;-77
2022/06/18 01:42:44;;;;;;;;;;;;;;;;;;5034552;28;19937;-78
2022/06/18 01:45:13;;;;;;;;;;;;;;;;;;5034632;28;20004;-77
2022/06/18 01:47:41;;;;;;;;;;;;;;;;;;5035012;28;20016;-77
2022/06/18 01:50:10;;;;;;;;;;;;;;;;;;5033798;28;19929;-78
2022/06/18 01:52:39;;;;;;;;;;;;;;;;;;5034263;28;19965;-77
2022/06/18 01:55:08;;;;;;;;;;;;;;;;;;5033636;28;19976;-77
2022/06/18 01:57:37;;;;;;;;;;;;;;;;;;5034053;28;19925;-77
2022/06/18 02:00:12;;;;;;;;;;;;;;;;;;5033358;28;19932;-77
2022/06/18 02:02:38;;;;;;;;;;;;;;;;;;5034126;28;19935;-78
2022/06/18 02:05:05;;;;;;;;;;;;;;;;;;5033596;28;19975;-77
2022/06/18 02:07:32;;;;;;;;;;;;;;;;;;5033615;28;19972;-77
2022/06/18 02:10:01;;;;;;;;;;;;;;;;;;5032866;28;19935;-77
2022/06/18 02:12:29;;;;;;;;;;;;;;;;;;5033921;28;19935;-78
2022/06/18 02:14:58;;;;;;;;;;;;;;;;;;5033627;28;19925;-78
2022/06/18 02:17:27;;;;;;;;;;;;;;;;;;5033819;28;19925;-77
2022/06/18 02:19:56;;;;;;;;;;;;;;;;;;5033107;28;20410;-77
2022/06/18 02:22:29;;;;;;;;;;;;;;;;;;5033641;28;20016;-77
2022/06/18 02:24:55;;;;;;;;;;;;;;;;;;5033358;28;19952;-77
2022/06/18 02:27:23;;;;;;;;;;;;;;;;;;5033414;28;19951;-77
2022/06/18 02:29:49;;;;;;;;;;;;;;;;;;5033278;28;20024;-77
2022/06/18 02:32:19;;;;;;;;;;;;;;;;;;5033432;28;19925;-77
2022/06/18 02:34:47;;;;;;;;;;;;;;;;;;5033479;28;19928;-77
2022/06/18 02:37:20;;;;;;;;;;;;;;;;;;5033853;28;19937;-78
2022/06/18 02:39:53;;;;;;;;;;;;;;;;;;5033109;28;19929;-76
2022/06/18 02:42:20;;;;;;;;;;;;;;;;;;5033343;28;20009;-77
2022/06/18 02:44:47;;;;;;;;;;;;;;;;;;5033498;28;19956;-77
2022/06/18 02:47:13;;;;;;;;;;;;;;;;;;5033440;28;19925;-77
2022/06/18 02:49:41;;;;;;;;;;;;;;;;;;5032735;28;19965;-77
2022/06/18 02:52:09;;;;;;;;;;;;;;;;;;5032987;28;19931;-77
2022/06/18 02:54:35;;;;;;;;;;;;;;;;;;5033053;28;19925;-77
2022/06/18 02:57:05;;;;;;;;;;;;;;;;;;5033033;28;19996;-76
2022/06/18 02:59:32;;;;;;;;;;;;;;;;;;5032763;28;20016;-78
2022/06/18 03:01:58;;;;;;;;;;;;;;;;;;5032975;28;19925;-78
2022/06/18 03:04:25;;;;;;;;;;;;;;;;;;5033067;28;20012;-78
2022/06/18 03:06:52;;;;;;;;;;;;;;;;;;5032964;28;19925;-78
2022/06/18 03:09:19;;;;;;;;;;;;;;;;;;5032317;28;20407;-77
2022/06/18 03:14:30;;;;;;;;;;;;;;;;;;5032760;28;20445;-77
2022/06/18 03:16:56;;;;;;;;;;;;;;;;;;5032814;28;19925;-77
2022/06/18 03:19:29;;;;;;;;;;;;;;;;;;5032043;28;19928;-78
2022/06/18 03:21:58;;;;;;;;;;;;;;;;;;5031631;28;19947;-77
2022/06/18 03:24:26;;;;;;;;;;;;;;;;;;5032471;28;19925;-77
2022/06/18 03:26:53;;;;;;;;;;;;;;;;;;5032586;28;20004;-78
2022/06/18 03:29:20;;;;;;;;;;;;;;;;;;5032497;28;19929;-76
2022/06/18 03:31:46;;;;;;;;;;;;;;;;;;5032497;28;20028;-77
2022/06/18 03:34:13;;;;;;;;;;;;;;;;;;5032522;28;19925;-78
2022/06/18 03:36:39;;;;;;;;;;;;;;;;;;5032739;28;20036;-77
2022/06/18 03:39:06;;;;;;;;;;;;;;;;;;5032742;28;19929;-78
2022/06/18 03:41:35;;;;;;;;;;;;;;;;;;5032742;28;19960;-77
2022/06/18 03:44:01;;;;;;;;;;;;;;;;;;5044293;28;19947;-79
2022/06/18 03:46:28;;;;;;;;;;;;;;;;;;5058876;28;19920;-79
2022/06/18 03:48:57;;;;;;;;;;;;;;;;;;5058552;28;19910;-80
2022/06/18 03:51:24;;;;;;;;;;;;;;;;;;5048404;28;20395;-76
2022/06/18 03:53:51;;;;;;;;;;;;;;;;;;5034347;28;19960;-78
2022/06/18 03:56:20;;;;;;;;;;;;;;;;;;5032566;28;20442;-77
2022/06/18 03:58:48;;;;;;;;;;;;;;;;;;5032233;28;19940;-78
2022/06/18 04:01:16;;;;;;;;;;;;;;;;;;5031987;28;19979;-77
2022/06/18 04:03:42;;;;;;;;;;;;;;;;;;5032580;28;20398;-78
2022/06/18 04:06:10;;;;;;;;;;;;;;;;;;5032156;28;19932;-78
2022/06/18 04:08:36;;;;;;;;;;;;;;;;;;5032477;28;19925;-78
2022/06/18 04:11:03;;;;;;;;;;;;;;;;;;5031914;28;19925;-78
2022/06/18 04:13:29;;;;;;;;;;;;;;;;;;5031970;28;20019;-78
2022/06/18 04:15:57;;;;;;;;;;;;;;;;;;5031949;28;19925;-78
2022/06/18 04:18:24;;;;;;;;;;;;;;;;;;5031965;28;20020;-78
2022/06/18 04:20:50;;;;;;;;;;;;;;;;;;5031837;28;19933;-77
2022/06/18 04:23:17;;;;;;;;;;;;;;;;;;5032359;28;20027;-77
2022/06/18 04:25:43;;;;;;;;;;;;;;;;;;5042059;28;20316;-76
2022/06/18 04:28:10;;;;;;;;;;;;;;;;;;5046185;28;20352;-77
2022/06/18 04:30:36;;;;;;;;;;;;;;;;;;5037985;28;20347;-77
2022/06/18 04:33:04;;;;;;;;;;;;;;;;;;5034004;28;19932;-78
2022/06/18 04:35:30;;;;;;;;;;;;;;;;;;5036037;28;19980;-78
2022/06/18 04:37:57;;;;;;;;;;;;;;;;;;5036192;28;19925;-78
2022/06/18 04:40:31;;;;;;;;;;;;;;;;;;5035650;28;20028;-78
2022/06/18 04:42:58;;;;;;;;;;;;;;;;;;5035950;28;19932;-78
2022/06/18 04:45:24;;;;;;;;;;;;;;;;;;5035739;28;19931;-77
2022/06/18 04:47:51;;;;;;;;;;;;;;;;;;5037936;28;19925;-79
2022/06/18 04:50:19;;;;;;;;;;;;;;;;;;5036886;28;20474;-78
2022/06/18 04:52:46;;;;;;;;;;;;;;;;;;5036911;28;19931;-78
2022/06/18 04:55:12;;;;;;;;;;;;;;;;;;5036881;28;19979;-78
2022/06/18 04:57:39;;;;;;;;;;;;;;;;;;5036185;28;20020;-79
2022/06/18 05:00:07;;;;;;;;;;;;;;;;;;5035244;28;20004;-79
2022/06/18 05:02:33;;;;;;;;;;;;;;;;;;5035693;28;19925;-79
2022/06/18 05:05:00;;;;;;;;;;;;;;;;;;5048032;28;20474;-79
2022/06/18 05:07:28;;;;;;;;;;;;;;;;;;5035245;28;19925;-80
2022/06/18 05:09:55;;;;;;;;;;;;;;;;;;5035941;28;19933;-78
2022/06/18 05:12:21;;;;;;;;;;;;;;;;;;5036158;28;19972;-79
2022/06/18 05:14:47;;;;;;;;;;;;;;;;;;5037038;28;19932;-79
2022/06/18 05:17:15;;;;;;;;;;;;;;;;;;5035260;28;19936;-78
2022/06/18 05:19:42;;;;;;;;;;;;;;;;;;5034382;28;19929;-79
2022/06/18 05:22:10;;;;;;;;;;;;;;;;;;5034337;28;19925;-78
2022/06/18 05:24:38;;;;;;;;;;;;;;;;;;5034487;28;19931;-79
2022/06/18 05:27:05;;;;;;;;;;;;;;;;;;5034333;28;19976;-79
2022/06/18 05:29:31;;;;;;;;;;;;;;;;;;5034099;28;19979;-77
2022/06/18 05:31:58;;;;;;;;;;;;;;;;;;5034284;28;19925;-78
2022/06/18 05:34:24;;;;;;;;;;;;;;;;;;5034435;28;19926;-79
2022/06/18 05:36:50;;;;;;;;;;;;;;;;;;5034151;28;19936;-80
2022/06/18 05:39:18;;;;;;;;;;;;;;;;;;5050235;28;20016;-77
2022/06/18 05:41:46;;;;;;;;;;;;;;;;;;5054278;28;19925;-79
2022/06/18 05:44:12;;;;;;;;;;;;;;;;;;5053498;28;19931;-78
2022/06/18 05:46:39;;;;;;;;;;;;;;;;;;5054124;28;19929;-78
2022/06/18 05:49:05;;;;;;;;;;;;;;;;;;5054024;28;20376;-77
2022/06/18 05:51:32;;;;;;;;;;;;;;;;;;5053798;28;19982;-77
2022/06/18 05:53:58;;;;;;;;;;;;;;;;;;5054161;28;20008;-77
2022/06/18 05:56:25;;;;;;;;;;;;;;;;;;5054219;28;19925;-77
2022/06/18 05:58:52;;;;;;;;;;;;;;;;;;5048636;28;19925;-77
2022/06/18 06:01:19;;;;;;;;;;;;;;;;;;5033906;28;20471;-76
2022/06/18 06:03:45;;;;;;;;;;;;;;;;;;5033638;28;19925;-78
2022/06/18 06:06:12;;;;;;;;;;;;;;;;;;5034076;28;19925;-77
2022/06/18 06:08:38;;;;;;;;;;;;;;;;;;5033627;28;19931;-78
2022/06/18 06:13:48;;;;;;;;;;;;;;;;;;5033740;28;19936;-77
2022/06/18 06:16:16;;;;;;;;;;;;;;;;;;5044121;22;19929;-63
2022/06/18 06:18:43;;;;;;;;;;;;;;;;;;5033296;28;19929;-62
2022/06/18 06:21:09;;;;;;;;;;;;;;;;;;5036116;28;20435;-64
2022/06/18 06:23:36;;;;;;;;;;;;;;;;;;5053326;28;19932;-62
2022/06/18 06:26:03;;;;;;;;;;;;;;;;;;5053647;28;19925;-61
2022/06/18 06:28:30;;;;;;;;;;;;;;;;;;5053344;28;19925;-61
2022/06/18 06:30:57;;;;;;;;;;;;;;;;;;5053254;28;19928;-61
2022/06/18 06:33:25;;;;;;;;;;;;;;;;;;5053239;28;20305;-62
2022/06/18 06:35:52;;;;;;;;;;;;;;;;;;5053108;28;19929;-61
2022/06/18 06:38:19;;;;;;;;;;;;;;;;;;5053335;28;19990;-62
2022/06/18 06:40:45;;;;;;;;;;;;;;;;;;5052946;28;19925;-62
2022/06/18 06:43:12;;;;;;;;;;;;;;;;;;5053124;28;19982;-62
2022/06/18 06:45:39;;;;;;;;;;;;;;;;;;5040592;28;19929;-62
2022/06/18 06:48:06;;;;;;;;;;;;;;;;;;5032764;28;19975;-61
2022/06/18 06:50:33;;;;;;;;;;;;;;;;;;5032852;28;19925;-62
2022/06/18 06:53:00;;;;;;;;;;;;;;;;;;5032780;28;19932;-61
2022/06/18 06:58:12;;;;;;;;;;;;;;;;;;5032869;28;19936;-61
2022/06/18 07:00:40;;;;;;;;;;;;;;;;;;5052615;28;19937;-62
2022/06/18 07:03:06;;;;;;;;;;;;;;;;;;5052638;28;19924;-62
2022/06/18 07:05:34;;;;;;;;;;;;;;;;;;5053060;28;19925;-62
2022/06/18 07:08:01;;;;;;;;;;;;;;;;;;5053080;28;19925;-62
2022/06/18 07:10:27;;;;;;;;;;;;;;;;;;5052764;28;19933;-61
2022/06/18 07:12:54;;;;;;;;;;;;;;;;;;5052482;28;19924;-60
2022/06/18 07:15:21;;;;;;;;;;;;;;;;;;5052623;28;19932;-62
2022/06/18 07:17:47;;;;;;;;;;;;;;;;;;5052473;28;20332;-62
2022/06/18 07:20:15;;;;;;;;;;;;;;;;;;5052626;28;19925;-62
2022/06/18 07:22:43;;;;;;;;;;;;;;;;;;5052471;28;19929;-62
2022/06/18 07:25:10;;;;;;;;;;;;;;;;;;5052362;28;20389;-62
2022/06/18 07:27:37;;;;;;;;;;;;;;;;;;5052434;28;19931;-61
2022/06/18 07:30:05;;;;;;;;;;;;;;;;;;5052236;28;19971;-62
2022/06/18 07:32:32;;;;;;;;;;;;;;;;;;5052239;28;19925;-62
2022/06/18 07:34:59;;;;;;;;;;;;;;;;;;5052652;28;19929;-62
2022/06/18 07:37:26;;;;;;;;;;;;;;;;;;5053121;28;20358;-62
2022/06/18 07:39:54;;;;;;;;;;;;;;;;;;5052417;28;19929;-63
2022/06/18 07:42:21;;;;;;;;;;;;;;;;;;5052060;28;19925;-63
2022/06/18 07:44:48;;;;;;;;;;;;;;;;;;5052553;28;19924;-62
2022/06/18 07:47:16;;;;;;;;;;;;;;;;;;5052585;28;19929;-63
2022/06/18 07:49:43;;;;;;;;;;;;;;;;;;5052107;28;19964;-62
2022/06/18 07:52:10;;;;;;;;;;;;;;;;;;5052221;28;19929;-62
2022/06/18 07:54:36;;;;;;;;;;;;;;;;;;5052572;28;19983;-63
2022/06/18 07:57:04;;;;;;;;;;;;;;;;;;5052455;28;19928;-63
2022/06/18 07:59:31;;;;;;;;;;;;;;;;;;5041488;28;19925;-63
2022/06/18 08:01:58;;;;;;;;;;;;;;;;;;5032362;28;19925;-63
2022/06/18 08:04:24;;;;;;;;;;;;;;;;;;5032443;28;19925;-63
2022/06/18 08:06:51;;;;;;;;;;;;;;;;;;5032014;28;20455;-63
2022/06/18 08:09:18;;;;;;;;;;;;;;;;;;5035933;28;19936;-63
2022/06/18 08:11:44;;;;;;;;;;;;;;;;;;5036055;28;20008;-63
2022/06/18 08:14:13;;;;;;;;;;;;;;;;;;5036107;28;19932;-63
2022/06/18 08:16:40;;;;;;;;;;;;;;;;;;5036173;28;19935;-63
2022/06/18 08:19:06;;;;;;;;;;;;;;;;;;5035667;28;19971;-62
2022/06/18 08:21:35;;;;;;;;;;;;;;;;;;5036026;28;19987;-63
2022/06/18 08:24:02;;;;;;;;;;;;;;;;;;5035873;28;19925;-63
2022/06/18 08:26:29;;;;;;;;;;;;;;;;;;5036144;28;20362;-63
2022/06/18 08:28:56;;;;;;;;;;;;;;;;;;5035707;28;20433;-63
2022/06/18 08:31:24;;;;;;;;;;;;;;;;;;5035446;28;20409;-63
2022/06/18 08:33:51;;;;;;;;;;;;;;;;;;5035507;28;19928;-63
2022/06/18 08:36:18;;;;;;;;;;;;;;;;;;5035349;28;19964;-63
2022/06/18 08:38:46;;;;;;;;;;;;;;;;;;5035558;28;19926;-65
2022/06/18 08:41:24;;;;;;;;;;;;;;;;;;5035369;28;19925;-64
2022/06/18 08:43:59;;;;;;;;;;;;;;;;;;5036037;28;19925;-64
2022/06/18 08:46:32;;;;;;;;;;;;;;;;;;5035282;28;20345;-64
2022/06/18 08:49:16;;;;;;;;;;;;;;;;;;5035230;28;20469;-63
2022/06/18 08:51:50;;;;;;;;;;;;;;;;;;5034948;28;19926;-63
2022/06/18 08:54:20;;;;;;;;;;;;;;;;;;5035556;28;19925;-65
2022/06/18 08:56:49;;;;;;;;;;;;;;;;;;5036134;28;20448;-64
2022/06/18 08:59:21;;;;;;;;;;;;;;;;;;5044065;28;19928;-61
2022/06/18 09:01:52;;;;;;;;;;;;;;;;;;5055780;28;19970;-65
2022/06/18 09:04:23;;;;;;;;;;;;;;;;;;5055601;28;19986;-64
2022/06/18 09:07:06;;;;;;;;;;;;;;;;;;5055390;28;19994;-64
2022/06/18 09:09:37;;;;;;;;;;;;;;;;;;5054885;28;20365;-65
2022/06/18 09:12:07;;;;;;;;;;;;;;;;;;5054941;28;19970;-65
2022/06/18 09:14:39;;;;;;;;;;;;;;;;;;5054545;28;19925;-65
2022/06/18 09:17:10;;;;;;;;;;;;;;;;;;5054837;28;19925;-65
2022/06/18 09:19:37;;;;;;;;;;;;;;;;;;5053349;28;19928;-65
2022/06/18 09:22:06;;;;;;;;;;;;;;;;;;5054984;28;20279;-65
2022/06/18 09:24:34;;;;;;;;;;;;;;;;;;5055076;28;19924;-65
2022/06/18 09:27:05;;;;;;;;;;;;;;;;;;5054975;28;19983;-64
2022/06/18 09:29:34;;;;;;;;;;;;;;;;;;5054634;28;19987;-65
2022/06/18 09:32:03;;;;;;;;;;;;;;;;;;5055046;28;20027;-64
2022/06/18 09:34:33;;;;;;;;;;;;;;;;;;5055644;28;20348;-64
2022/06/18 09:37:02;;;;;;;;;;;;;;;;;;5056645;28;19929;-64
2022/06/18 09:39:34;;;;;;;;;;;;;;;;;;5056099;28;20345;-64
2022/06/18 09:42:02;;;;;;;;;;;;;;;;;;5055606;28;19932;-64
2022/06/18 09:44:34;;;;;;;;;;;;;;;;;;5055287;28;20032;-65
2022/06/18 09:47:02;;;;;;;;;;;;;;;;;;5057337;28;19925;-62
2022/06/18 09:49:28;;;;;;;;;;;;;;;;;;5056856;28;19925;-60
2022/06/18 09:51:58;;;;;;;;;;;;;;;;;;5056649;28;19924;-63
2022/06/18 09:54:28;;;;;;;;;;;;;;;;;;5056025;28;19947;-64
2022/06/18 09:56:58;;;;;;;;;;;;;;;;;;5055657;28;20374;-63
2022/06/18 09:59:27;;;;;;;;;;;;;;;;;;5054992;28;19925;-64
2022/06/18 10:01:55;;;;;;;;;;;;;;;;;;5055697;28;19929;-64
2022/06/18 10:07:13;;;;;;;;;;;;;;;;;;5056178;28;19932;-64
2022/06/18 10:09:41;;;;;;;;;;;;;;;;;;5055495;28;20392;-64
2022/06/18 10:12:14;;;;;;;;;;;;;;;;;;5035757;28;20024;-64
2022/06/18 10:14:42;;;;;;;;;;;;;;;;;;5034942;28;19925;-64
2022/06/18 10:17:13;;;;;;;;;;;;;;;;;;5034516;28;19940;-64
2022/06/18 10:19:47;;;;;;;;;;;;;;;;;;5034653;28;19925;-64
2022/06/18 10:22:19;;;;;;;;;;;;;;;;;;5034592;28;19929;-64
2022/06/18 10:24:51;;;;;;;;;;;;;;;;;;5035084;28;19925;-63
2022/06/18 10:27:25;;;;;;;;;;;;;;;;;;5035201;28;19975;-64
2022/06/18 10:29:55;;;;;;;;;;;;;;;;;;5035019;28;19925;-64
2022/06/18 10:32:31;;;;;;;;;;;;;;;;;;5034622;28;19925;-64
2022/06/18 10:35:09;;;;;;;;;;;;;;;;;;5034951;28;19925;-64
2022/06/18 10:37:41;;;;;;;;;;;;;;;;;;5035029;28;19926;-64
2022/06/18 10:40:12;;;;;;;;;;;;;;;;;;5034977;28;20393;-64
2022/06/18 10:42:46;;;;;;;;;;;;;;;;;;5034840;28;19929;-64
2022/06/18 10:45:18;;;;;;;;;;;;;;;;;;5035060;28;19932;-64
2022/06/18 10:47:46;;;;;;;;;;;;;;;;;;5034955;28;19925;-64
2022/06/18 10:50:14;;;;;;;;;;;;;;;;;;5034432;28;19932;-63
2022/06/18 10:52:42;;;;;;;;;;;;;;;;;;5034417;28;19971;-63
2022/06/18 10:55:13;;;;;;;;;;;;;;;;;;5033844;28;19929;-64
2022/06/18 10:57:39;;;;;;;;;;;;;;;;;;5032710;28;19928;-65
2022/06/18 11:00:10;;;;;;;;;;;;;;;;;;5048341;28;19925;-64
2022/06/18 11:02:38;;;;;;;;;;;;;;;;;;5053394;28;19925;-63
2022/06/18 11:05:13;;;;;;;;;;;;;;;;;;5054732;28;19928;-66
2022/06/18 11:07:40;;;;;;;;;;;;;;;;;;5053453;28;19924;-65
2022/06/18 11:10:21;;;;;;;;;;;;;;;;;;5035146;28;23069;-64
2022/06/18 11:12:52;;;;;;;;;;;;;;;;;;5055363;28;19925;-63
2022/06/18 11:15:23;;;;;;;;;;;;;;;;;;5055305;28;19974;-64
2022/06/18 11:17:49;;;;;;;;;;;;;;;;;;5055953;28;20015;-64
2022/06/18 11:20:18;;;;;;;;;;;;;;;;;;5055244;28;20385;-65
2022/06/18 11:22:50;;;;;;;;;;;;;;;;;;5054782;28;19925;-63
2022/06/18 11:25:26;;;;;;;;;;;;;;;;;;5054698;28;20394;-63
2022/06/18 11:27:53;;;;;;;;;;;;;;;;;;5054665;28;19933;-63
2022/06/18 11:30:23;;;;;;;;;;;;;;;;;;5054625;28;19924;-63
2022/06/18 11:32:50;;;;;;;;;;;;;;;;;;5053335;28;19979;-63
2022/06/18 11:35:19;;;;;;;;;;;;;;;;;;5053749;28;19928;-63
2022/06/18 11:37:56;;;;;;;;;;;;;;;;;;5053770;28;19978;-63
2022/06/18 11:40:23;;;;;;;;;;;;;;;;;;5054169;28;20393;-63
2022/06/18 11:42:52;;;;;;;;;;;;;;;;;;5052863;28;19936;-63
2022/06/18 11:45:32;;;;;;;;;;;;;;;;;;5053526;28;19924;-63
2022/06/18 11:48:03;;;;;;;;;;;;;;;;;;5053759;28;19925;-63
2022/06/18 11:50:32;;;;;;;;;;;;;;;;;;5053749;28;20369;-63
2022/06/18 11:53:02;;;;;;;;;;;;;;;;;;5053427;28;19929;-63
2022/06/18 11:55:30;;;;;;;;;;;;;;;;;;5053439;28;20447;-63
2022/06/18 11:58:02;;;;;;;;;;;;;;;;;;5053097;28;19964;-63
2022/06/18 12:00:32;;;;;;;;;;;;;;;;;;5034492;28;19971;-63
2022/06/18 12:03:01;;;;;;;;;;;;;;;;;;5033350;28;19929;-63
2022/06/18 12:05:29;;;;;;;;;;;;;;;;;;5033238;28;19925;-63
2022/06/18 12:07:57;;;;;;;;;;;;;;;;;;5033286;28;19948;-63
2022/06/18 12:10:39;;;;;;;;;;;;;;;;;;5033333;28;19924;-63
2022/06/18 12:13:13;;;;;;;;;;;;;;;;;;5032702;28;20283;-63
2022/06/18 12:15:42;;;;;;;;;;;;;;;;;;5033163;28;19925;-63
2022/06/18 12:18:16;;;;;;;;;;;;;;;;;;5033079;28;20414;-63
2022/06/18 12:20:54;;;;;;;;;;;;;;;;;;5033080;28;19929;-63
2022/06/18 12:23:23;;;;;;;;;;;;;;;;;;5032924;28;19932;-63
2022/06/18 12:25:55;;;;;;;;;;;;;;;;;;5033206;28;19987;-63
2022/06/18 12:28:28;;;;;;;;;;;;;;;;;;5032943;28;19933;-63
2022/06/18 12:30:56;;;;;;;;;;;;;;;;;;5033159;28;20007;-63
2022/06/18 12:33:29;;;;;;;;;;;;;;;;;;5033401;28;19925;-64
2022/06/18 12:35:57;;;;;;;;;;;;;;;;;;5033916;28;20322;-63
2022/06/18 12:38:28;;;;;;;;;;;;;;;;;;5034007;28;19925;-63
2022/06/18 12:41:00;;;;;;;;;;;;;;;;;;5033815;28;19930;-63
2022/06/18 12:43:31;;;;;;;;;;;;;;;;;;5033060;28;20337;-63
2022/06/18 12:45:59;;;;;;;;;;;;;;;;;;5033859;28;19929;-64
2022/06/18 12:48:30;;;;;;;;;;;;;;;;;;5033524;28;20459;-64
2022/06/18 12:51:02;;;;;;;;;;;;;;;;;;5033217;28;19925;-63
2022/06/18 12:53:38;;;;;;;;;;;;;;;;;;5034538;28;19925;-63
2022/06/18 12:56:11;;;;;;;;;;;;;;;;;;5037287;28;19925;-64
2022/06/18 12:58:45;;;;;;;;;;;;;;;;;;5039705;28;20033;-64
2022/06/18 13:01:13;;;;;;;;;;;;;;;;;;5056090;28;19986;-64
2022/06/18 13:03:48;;;;;;;;;;;;;;;;;;5056257;28;20023;-64
2022/06/18 13:06:19;;;;;;;;;;;;;;;;;;5056620;28;19929;-64
2022/06/18 13:08:52;;;;;;;;;;;;;;;;;;5056397;28;19932;-63
2022/06/18 13:11:23;;;;;;;;;;;;;;;;;;5055720;28;19978;-63
2022/06/18 13:13:57;;;;;;;;;;;;;;;;;;5055979;28;19925;-63
2022/06/18 13:16:27;;;;;;;;;;;;;;;;;;5056054;28;19971;-63
2022/06/18 13:18:55;;;;;;;;;;;;;;;;;;5056176;28;19982;-63
2022/06/18 13:21:22;;;;;;;;;;;;;;;;;;5055591;28;19986;-63
2022/06/18 13:29:23;;;;;;;;;;;;;;;;;;5056130;28;20407;-63
2022/06/18 13:31:55;;;;;;;;;;;;;;;;;;5055209;28;20440;-64
2022/06/18 13:34:31;;;;;;;;;;;;;;;;;;5056013;28;20291;-64
2022/06/18 13:37:00;;;;;;;;;;;;;;;;;;5055540;28;19986;-65
2022/06/18 13:39:32;;;;;;;;;;;;;;;;;;5059830;22;19929;-79
2022/06/18 13:42:04;;;;;;;;;;;;;;;;;;5013702;28;20000;-79
2022/06/18 13:44:40;;;;;;;;;;;;;;;;;;5014482;28;20126;-79
2022/06/18 13:47:11;;;;;;;;;;;;;;;;;;5015515;28;19929;-79
2022/06/18 13:49:40;;;;;;;;;;;;;;;;;;5013862;28;19976;-76
2022/06/18 13:52:07;;;;;;;;;;;;;;;;;;5011012;28;20016;-77
2022/06/18 13:54:41;;;;;;;;;;;;;;;;;;4995869;28;19926;-77
2022/06/18 13:57:08;;;;;;;;;;;;;;;;;;4996528;28;19933;-78
2022/06/18 13:59:38;;;;;;;;;;;;;;;;;;5014599;28;19985;-83
2022/06/18 14:02:06;;;;;;;;;;;;;;;;;;5018805;28;19932;-77
2022/06/18 14:04:34;;;;;;;;;;;;;;;;;;5014928;28;19931;-77
2022/06/18 14:07:02;;;;;;;;;;;;;;;;;;5012031;28;19925;-76
2022/06/18 14:09:29;;;;;;;;;;;;;;;;;;5011983;28;19933;-77
2022/06/18 14:11:57;;;;;;;;;;;;;;;;;;5012018;28;20012;-77
2022/06/18 14:14:29;;;;;;;;;;;;;;;;;;5002771;28;20338;-76
2022/06/18 14:17:02;;;;;;;;;;;;;;;;;;4993032;28;19926;-77
2022/06/18 14:19:30;;;;;;;;;;;;;;;;;;4991682;28;20463;-77
2022/06/18 14:22:01;;;;;;;;;;;;;;;;;;4993031;28;19933;-78
2022/06/18 14:24:36;;;;;;;;;;;;;;;;;;4992543;28;20372;-77
2022/06/18 14:27:03;;;;;;;;;;;;;;;;;;4992659;28;19933;-77
2022/06/18 14:29:38;;;;;;;;;;;;;;;;;;4991422;28;20021;-77
2022/06/18 14:32:11;;;;;;;;;;;;;;;;;;4992479;28;19930;-76
2022/06/18 14:34:42;;;;;;;;;;;;;;;;;;4993407;28;19926;-77
2022/06/18 14:37:09;;;;;;;;;;;;;;;;;;4995372;28;19969;-77
2022/06/18 14:39:41;;;;;;;;;;;;;;;;;;4993033;28;19926;-77
2022/06/18 14:42:11;;;;;;;;;;;;;;;;;;4996716;28;19929;-77
2022/06/18 14:45:07;;;;;;;;;;;;;;;;;;4997597;28;20363;-77
2022/06/18 14:47:54;;;;;;;;;;;;;;;;;;4935067;29;19933;-77
2022/06/18 14:50:32;;;;;;;;;;;;;;;;;;4987418;28;19932;-75
2022/06/18 14:53:03;;;;;;;;;;;;;;;;;;4995640;28;19929;-78
2022/06/18 14:55:47;;;;;;;;;;;;;;;;;;4999727;28;20020;-77
2022/06/18 14:58:25;;;;;;;;;;;;;;;;;;4999038;28;19926;-78
2022/06/18 15:01:04;;;;;;;;;;;;;;;;;;4976765;28;19980;-78
2022/06/18 15:03:32;;;;;;;;;;;;;;;;;;4976617;28;19926;-79
2022/06/18 15:06:01;;;;;;;;;;;;;;;;;;4977519;28;19926;-78
2022/06/18 15:08:27;;;;;;;;;;;;;;;;;;4976451;28;20021;-76
2022/06/18 15:10:55;;;;;;;;;;;;;;;;;;4976574;28;19926;-78
2022/06/18 15:13:22;;;;;;;;;;;;;;;;;;4976216;28;19989;-79
2022/06/18 15:16:03;;;;;;;;;;;;;;;;;;4976909;28;19926;-79
2022/06/18 15:18:35;;;;;;;;;;;;;;;;;;4976672;28;19953;-77
2022/06/18 15:21:10;;;;;;;;;;;;;;;;;;4976407;28;19993;-79
2022/06/18 15:23:45;;;;;;;;;;;;;;;;;;4976727;28;19969;-79
2022/06/18 15:26:14;;;;;;;;;;;;;;;;;;4976905;28;19926;-78
2022/06/18 15:28:41;;;;;;;;;;;;;;;;;;4974254;28;20435;-78
2022/06/18 15:31:29;;;;;;;;;;;;;;;;;;4971691;28;19926;-77
2022/06/18 15:33:56;;;;;;;;;;;;;;;;;;4974205;28;19933;-78
2022/06/18 15:36:26;;;;;;;;;;;;;;;;;;4990217;28;20574;-78
2022/06/18 15:38:57;;;;;;;;;;;;;;;;;;4990720;28;19932;-78
2022/06/18 15:41:32;;;;;;;;;;;;;;;;;;4991315;28;19929;-77
2022/06/18 15:43:58;;;;;;;;;;;;;;;;;;4991230;28;20378;-79
2022/06/18 15:46:26;;;;;;;;;;;;;;;;;;4991092;28;20292;-78
2022/06/18 15:48:54;;;;;;;;;;;;;;;;;;4991295;28;19926;-77
2022/06/18 15:51:23;;;;;;;;;;;;;;;;;;4991089;28;19926;-78
2022/06/18 15:53:53;;;;;;;;;;;;;;;;;;4991480;28;19932;-77
2022/06/18 15:56:22;;;;;;;;;;;;;;;;;;4991291;28;19933;-78
2022/06/18 15:58:49;;;;;;;;;;;;;;;;;;4991416;28;20005;-78
2022/06/18 16:01:17;;;;;;;;;;;;;;;;;;4991211;28;20016;-79
2022/06/18 16:03:45;;;;;;;;;;;;;;;;;;4991313;28;19926;-78
2022/06/18 16:06:14;;;;;;;;;;;;;;;;;;4991081;28;19926;-79
2022/06/18 16:08:43;;;;;;;;;;;;;;;;;;4991004;28;19925;-78
2022/06/18 16:11:20;;;;;;;;;;;;;;;;;;4997908;28;20434;-79
2022/06/18 16:13:47;;;;;;;;;;;;;;;;;;5010531;28;19925;-78
2022/06/18 16:16:33;;;;;;;;;;;;;;;;;;5010439;28;19926;-78
2022/06/18 16:19:00;;;;;;;;;;;;;;;;;;5010399;28;19935;-78
2022/06/18 16:21:27;;;;;;;;;;;;;;;;;;5010104;28;20013;-77
2022/06/18 16:23:54;;;;;;;;;;;;;;;;;;5010640;28;19932;-79
2022/06/18 16:26:26;;;;;;;;;;;;;;;;;;5009930;28;19925;-78
2022/06/18 16:28:53;;;;;;;;;;;;;;;;;;5005833;28;20456;-79
2022/06/18 16:31:19;;;;;;;;;;;;;;;;;;4993516;28;19926;-79
2022/06/18 16:33:47;;;;;;;;;;;;;;;;;;4996654;28;19969;-80
2022/06/18 16:36:15;;;;;;;;;;;;;;;;;;4997299;28;20020;-79
2022/06/18 16:38:55;;;;;;;;;;;;;;;;;;4995998;28;20672;-79
2022/06/18 16:41:25;;;;;;;;;;;;;;;;;;4996033;28;19925;-77
2022/06/18 16:44:10;;;;;;;;;;;;;;;;;;4994978;28;19925;-79
2022/06/18 16:46:38;;;;;;;;;;;;;;;;;;4995810;28;20304;-78
2022/06/18 16:49:10;;;;;;;;;;;;;;;;;;4996861;28;19926;-80
2022/06/18 16:51:37;;;;;;;;;;;;;;;;;;4994080;28;19926;-78
2022/06/18 16:54:04;;;;;;;;;;;;;;;;;;4994830;28;19975;-78
2022/06/18 16:56:30;;;;;;;;;;;;;;;;;;4995317;28;19926;-78
2022/06/18 16:58:57;;;;;;;;;;;;;;;;;;5002524;28;20016;-79
2022/06/18 17:01:23;;;;;;;;;;;;;;;;;;5017440;28;19972;-80
2022/06/18 17:03:51;;;;;;;;;;;;;;;;;;5017852;28;20016;-78
2022/06/18 17:06:18;;;;;;;;;;;;;;;;;;5017206;28;19960;-77
2022/06/18 17:08:44;;;;;;;;;;;;;;;;;;5010586;28;19932;-77
2022/06/18 17:11:11;;;;;;;;;;;;;;;;;;4995008;28;19957;-78
2022/06/18 17:13:38;;;;;;;;;;;;;;;;;;4997424;28;20393;-79
2022/06/18 17:16:05;;;;;;;;;;;;;;;;;;4996149;28;20020;-79